Time;durP1;ratioP1;P1;durP2;ratioP2;P2;SDS_P1;SDS_P2;PMS_P1;PMS_P2;Temp;Humidity;BMP_temperature;BMP_pressure;BME280_temperature;BME280_humidity;BME280_pressure;Samples;Min_cycle;Max_cycle;Signal;HPM_P1;HPM_P2
2021/01/09 00:00:14;;;;;;;94.27;40.43;;;0.60;99.90;;;;;;4365628;33;20136;-74
2021/01/09 00:02:40;;;;;;;97.87;40.60;;;0.70;99.90;;;;;;4365681;33;20442;-74
2021/01/09 00:05:08;;;;;;;95.13;41.40;;;0.70;99.90;;;;;;4365675;33;20420;-74
2021/01/09 00:07:36;;;;;;;93.93;40.63;;;0.70;99.90;;;;;;4365752;33;20150;-74
2021/01/09 00:10:07;;;;;;;92.77;39.73;;;0.70;99.90;;;;;;4365440;33;20344;-74
2021/01/09 00:12:38;;;;;;;96.27;41.20;;;0.70;99.90;;;;;;4365553;33;20148;-74
2021/01/09 00:15:06;;;;;;;96.97;40.97;;;0.70;99.90;;;;;;4365359;33;20136;-74
2021/01/09 00:17:33;;;;;;;94.20;41.53;;;0.70;99.90;;;;;;4365213;33;20506;-74
2021/01/09 00:20:00;;;;;;;94.37;42.47;;;0.60;99.90;;;;;;4365367;33;20516;-74
2021/01/09 00:22:27;;;;;;;100.97;41.77;;;0.60;99.90;;;;;;4365327;33;20194;-74
2021/01/09 00:24:53;;;;;;;105.63;43.37;;;0.70;99.90;;;;;;4365387;33;20159;-74
2021/01/09 00:27:20;;;;;;;101.63;42.60;;;0.70;99.90;;;;;;4365363;33;20162;-75
2021/01/09 00:29:46;;;;;;;98.07;43.40;;;0.70;99.90;;;;;;4365406;33;20206;-75
2021/01/09 00:32:13;;;;;;;105.70;44.03;;;0.70;99.90;;;;;;4366844;33;20454;-73
2021/01/09 00:34:40;;;;;;;97.53;43.27;;;0.70;99.90;;;;;;4365330;33;20132;-74
2021/01/09 00:37:06;;;;;;;105.17;44.33;;;0.70;99.90;;;;;;4365300;33;20185;-74
2021/01/09 00:39:33;;;;;;;100.43;44.10;;;0.60;99.90;;;;;;4365275;33;20140;-74
2021/01/09 00:42:02;;;;;;;103.77;43.63;;;0.50;99.90;;;;;;4365265;33;20195;-73
2021/01/09 00:44:28;;;;;;;109.67;42.70;;;0.50;99.90;;;;;;4365294;33;20463;-74
2021/01/09 00:46:56;;;;;;;104.70;43.03;;;0.60;99.90;;;;;;4364873;32;20188;-74
2021/01/09 00:49:23;;;;;;;101.50;41.93;;;0.50;99.90;;;;;;4365196;32;20155;-74
2021/01/09 00:51:49;;;;;;;95.77;41.57;;;0.50;99.90;;;;;;4364985;33;20156;-73
2021/01/09 00:54:16;;;;;;;100.63;42.03;;;0.50;99.90;;;;;;4366719;32;20218;-73
2021/01/09 00:56:43;;;;;;;98.83;41.63;;;0.50;99.90;;;;;;4366160;32;20200;-74
2021/01/09 00:59:09;;;;;;;102.73;42.43;;;0.40;99.90;;;;;;4365871;32;20135;-74
2021/01/09 01:01:36;;;;;;;99.30;41.33;;;0.30;99.90;;;;;;4366230;32;20184;-74
2021/01/09 01:04:02;;;;;;;95.70;42.37;;;0.40;99.90;;;;;;4365765;32;20224;-75
2021/01/09 01:06:30;;;;;;;101.07;42.27;;;0.40;99.90;;;;;;4365772;32;20211;-74
2021/01/09 01:08:56;;;;;;;109.47;44.37;;;0.30;99.90;;;;;;4365181;32;20158;-73
2021/01/09 01:11:26;;;;;;;95.23;41.60;;;0.30;99.90;;;;;;4365876;32;20525;-74
2021/01/09 01:13:54;;;;;;;96.80;41.43;;;0.30;99.90;;;;;;4365683;32;20384;-73
2021/01/09 01:16:21;;;;;;;107.10;43.10;;;0.40;99.90;;;;;;4365689;32;20142;-74
2021/01/09 01:18:49;;;;;;;101.07;43.93;;;0.40;99.90;;;;;;4365948;32;20159;-73
2021/01/09 01:21:15;;;;;;;100.53;42.43;;;0.40;99.90;;;;;;4365511;32;20461;-73
2021/01/09 01:23:42;;;;;;;100.47;42.70;;;0.50;99.90;;;;;;4365654;32;20163;-73
2021/01/09 01:26:10;;;;;;;103.13;43.47;;;0.50;99.90;;;;;;4365731;32;20136;-74
2021/01/09 01:28:37;;;;;;;101.77;43.87;;;0.30;99.90;;;;;;4364922;32;20563;-73
2021/01/09 01:31:05;;;;;;;103.50;43.63;;;0.30;99.90;;;;;;4365548;32;20144;-73
2021/01/09 01:33:32;;;;;;;109.27;43.93;;;0.30;99.90;;;;;;4365412;32;20461;-74
2021/01/09 01:35:59;;;;;;;108.07;44.53;;;0.30;99.90;;;;;;4365457;32;20219;-73
2021/01/09 01:38:25;;;;;;;110.53;44.77;;;0.30;99.90;;;;;;4365331;32;20162;-73
2021/01/09 01:41:00;;;;;;;105.13;43.80;;;0.40;99.90;;;;;;4365232;32;20523;-73
2021/01/09 01:43:27;;;;;;;109.67;43.70;;;0.30;99.90;;;;;;4365428;32;20199;-73
2021/01/09 01:45:54;;;;;;;102.67;43.80;;;0.30;99.90;;;;;;4364937;32;20186;-73
2021/01/09 01:48:21;;;;;;;109.47;44.53;;;0.40;99.90;;;;;;4366147;32;20159;-73
2021/01/09 01:50:49;;;;;;;106.13;44.27;;;0.30;99.90;;;;;;4365137;32;20200;-73
2021/01/09 01:53:16;;;;;;;105.27;43.03;;;0.30;99.90;;;;;;4364891;32;20494;-74
2021/01/09 01:55:44;;;;;;;103.63;43.33;;;0.30;99.90;;;;;;4365115;32;20497;-74
2021/01/09 01:58:11;;;;;;;104.57;43.97;;;0.30;99.90;;;;;;4364708;32;20168;-74
2021/01/09 02:00:46;;;;;;;97.57;42.60;;;0.40;99.90;;;;;;4365093;32;20454;-74
2021/01/09 02:03:17;;;;;;;104.50;42.13;;;0.50;99.90;;;;;;4367008;32;20427;-74
2021/01/09 02:06:14;;;;;;;103.67;42.17;;;0.40;99.90;;;;;;4364960;32;20488;-74
2021/01/09 02:08:53;;;;;;;97.70;41.30;;;0.40;99.90;;;;;;4304375;33;20141;-75
2021/01/09 02:11:50;;;;;;;106.03;42.67;;;0.30;99.90;;;;;;4304498;33;20153;-74
2021/01/09 02:14:31;;;;;;;109.57;43.37;;;0.10;99.90;;;;;;4246713;33;20165;-73
2021/01/09 02:16:59;;;;;;;102.97;43.07;;;0.20;99.90;;;;;;4247171;33;20179;-74
2021/01/09 02:19:29;;;;;;;103.87;43.17;;;0.20;99.90;;;;;;4247004;33;20151;-73
2021/01/09 02:21:59;;;;;;;107.53;42.13;;;0.30;99.90;;;;;;4246606;33;20205;-74
2021/01/09 02:24:26;;;;;;;105.80;42.57;;;0.20;99.90;;;;;;4246997;33;20197;-74
2021/01/09 02:26:52;;;;;;;104.90;43.93;;;0.20;99.90;;;;;;4247223;33;20142;-74
2021/01/09 02:29:22;;;;;;;105.30;41.77;;;0.30;99.90;;;;;;4246643;33;20164;-73
2021/01/09 02:31:59;;;;;;;101.60;41.90;;;0.20;99.90;;;;;;4246849;33;20154;-74
2021/01/09 02:34:30;;;;;;;108.77;43.83;;;0.20;99.90;;;;;;4246374;33;20146;-74
2021/01/09 02:36:58;;;;;;;106.20;42.93;;;0.20;99.90;;;;;;4246562;33;20423;-74
2021/01/09 02:39:26;;;;;;;103.10;41.80;;;0.30;99.90;;;;;;4246664;33;20151;-74
2021/01/09 02:41:54;;;;;;;104.43;42.93;;;0.20;99.90;;;;;;4246421;33;20155;-73
2021/01/09 02:44:21;;;;;;;103.47;43.70;;;0.30;99.90;;;;;;4246813;33;20174;-74
2021/01/09 02:46:47;;;;;;;102.20;42.20;;;0.30;99.90;;;;;;4304873;33;20239;-74
2021/01/09 02:49:14;;;;;;;105.33;42.67;;;0.30;99.90;;;;;;4303361;33;20141;-74
2021/01/09 02:51:40;;;;;;;102.90;41.13;;;0.20;99.90;;;;;;4347725;32;20508;-74
2021/01/09 02:54:07;;;;;;;105.70;42.77;;;0.30;99.90;;;;;;4350339;33;20346;-73
2021/01/09 02:56:33;;;;;;;105.37;43.03;;;0.30;99.90;;;;;;4364138;32;20162;-73
2021/01/09 02:59:00;;;;;;;106.57;43.40;;;0.30;99.90;;;;;;4364522;32;20127;-74
2021/01/09 03:01:30;;;;;;;102.07;42.20;;;0.20;99.90;;;;;;4364462;32;20160;-74
2021/01/09 03:03:58;;;;;;;102.67;42.80;;;0.30;99.90;;;;;;4364644;32;20164;-74
2021/01/09 03:06:26;;;;;;;105.40;44.20;;;0.20;99.90;;;;;;4364637;32;20144;-73
2021/01/09 03:08:52;;;;;;;111.33;44.77;;;0.20;99.90;;;;;;4364132;32;20147;-73
2021/01/09 03:11:19;;;;;;;106.80;42.83;;;0.10;99.90;;;;;;4364415;32;20154;-73
2021/01/09 03:13:46;;;;;;;100.57;43.00;;;0.10;99.90;;;;;;4364119;32;20163;-73
2021/01/09 03:16:13;;;;;;;101.40;43.33;;;0.10;99.90;;;;;;4365548;32;20161;-73
2021/01/09 03:18:40;;;;;;;104.93;42.73;;;0.10;99.90;;;;;;4364084;32;20162;-73
2021/01/09 03:21:07;;;;;;;103.80;43.13;;;0.10;99.90;;;;;;4364375;32;20157;-73
2021/01/09 03:23:34;;;;;;;109.10;43.37;;;0.20;99.90;;;;;;4364019;33;20128;-73
2021/01/09 03:26:02;;;;;;;99.83;41.87;;;0.30;99.90;;;;;;4363976;33;20215;-73
2021/01/09 03:28:29;;;;;;;94.87;41.13;;;0.20;99.90;;;;;;4364031;33;20492;-73
2021/01/09 03:30:55;;;;;;;106.00;42.27;;;0.20;99.90;;;;;;4363793;33;20239;-73
2021/01/09 03:33:22;;;;;;;96.00;41.20;;;0.20;99.90;;;;;;4363886;33;20167;-73
2021/01/09 03:35:49;;;;;;;99.67;41.37;;;0.20;99.90;;;;;;4363911;33;20151;-73
2021/01/09 03:38:16;;;;;;;98.07;41.77;;;0.20;99.90;;;;;;4364056;33;20457;-74
2021/01/09 03:40:43;;;;;;;96.17;41.07;;;0.20;99.90;;;;;;4363872;33;20148;-73
2021/01/09 03:43:10;;;;;;;99.93;42.03;;;0.30;99.90;;;;;;4363881;33;20142;-73
2021/01/09 03:45:36;;;;;;;99.67;42.43;;;0.30;99.90;;;;;;4363712;33;20433;-74
2021/01/09 03:48:03;;;;;;;103.37;41.47;;;0.40;99.90;;;;;;4363838;33;20194;-73
2021/01/09 03:50:29;;;;;;;89.13;40.67;;;0.40;99.90;;;;;;4363897;33;20465;-73
2021/01/09 03:52:56;;;;;;;99.03;40.70;;;0.40;99.90;;;;;;4363684;33;20151;-74
2021/01/09 03:55:22;;;;;;;97.47;41.30;;;0.30;99.90;;;;;;4363485;33;20153;-73
2021/01/09 03:57:49;;;;;;;95.67;40.90;;;0.30;99.90;;;;;;4350510;33;20176;-74
2021/01/09 04:00:17;;;;;;;98.80;41.57;;;0.30;99.90;;;;;;4363734;33;20169;-73
2021/01/09 04:02:44;;;;;;;107.80;44.13;;;0.30;99.90;;;;;;4350489;33;20148;-74
2021/01/09 04:05:11;;;;;;;112.10;46.80;;;0.30;99.90;;;;;;4363842;33;20217;-74
2021/01/09 04:07:37;;;;;;;117.23;46.20;;;0.20;99.90;;;;;;4364778;33;20204;-74
2021/01/09 04:10:05;;;;;;;111.73;46.03;;;0.20;99.90;;;;;;4363689;33;20148;-73
2021/01/09 04:12:32;;;;;;;100.90;42.53;;;0.20;99.90;;;;;;4365005;33;20137;-74
2021/01/09 04:14:59;;;;;;;101.17;41.63;;;0.20;99.90;;;;;;4363734;33;20539;-73
2021/01/09 04:17:26;;;;;;;93.60;40.47;;;0.20;99.90;;;;;;4350461;33;20136;-73
2021/01/09 04:19:53;;;;;;;93.73;39.50;;;0.20;99.90;;;;;;4364764;33;20145;-74
2021/01/09 04:22:19;;;;;;;94.43;39.17;;;0.20;99.90;;;;;;4364947;32;20178;-74
2021/01/09 04:24:46;;;;;;;102.00;40.53;;;0.10;99.90;;;;;;4366422;32;20151;-74
2021/01/09 04:27:14;;;;;;;98.63;40.77;;;0.10;99.90;;;;;;4366402;32;20449;-74
2021/01/09 04:29:40;;;;;;;98.10;39.73;;;0.10;99.90;;;;;;4366334;32;20136;-74
2021/01/09 04:32:07;;;;;;;97.50;38.83;;;0.10;99.90;;;;;;4365682;32;20259;-73
2021/01/09 04:34:34;;;;;;;90.30;40.27;;;0.10;99.90;;;;;;4366346;32;20137;-73
2021/01/09 04:37:00;;;;;;;98.80;38.80;;;0.10;99.90;;;;;;4366283;32;20140;-73
2021/01/09 04:39:27;;;;;;;106.50;39.97;;;0.10;99.90;;;;;;4366394;32;20439;-74
2021/01/09 04:41:53;;;;;;;96.07;39.37;;;0.00;99.90;;;;;;4352386;33;20190;-76
2021/01/09 04:44:20;;;;;;;97.67;40.07;;;0.10;99.90;;;;;;4366083;32;20139;-73
2021/01/09 04:46:52;;;;;;;100.60;39.13;;;0.10;99.90;;;;;;4365947;32;20138;-73
2021/01/09 04:49:26;;;;;;;97.47;39.93;;;0.10;99.90;;;;;;4365794;32;20141;-74
2021/01/09 04:51:54;;;;;;;94.17;38.97;;;0.10;99.90;;;;;;4367472;32;20148;-73
2021/01/09 04:54:25;;;;;;;95.07;38.07;;;0.10;99.90;;;;;;4365303;32;20211;-73
2021/01/09 04:56:54;;;;;;;93.70;40.47;;;0.10;99.90;;;;;;4365306;32;20494;-73
2021/01/09 04:59:22;;;;;;;100.00;39.47;;;0.10;99.90;;;;;;4365808;32;20152;-75
2021/01/09 05:01:50;;;;;;;94.40;38.43;;;0.10;99.90;;;;;;4365822;32;20171;-75
2021/01/09 05:04:18;;;;;;;89.67;38.73;;;0.20;99.90;;;;;;4366699;32;20168;-73
2021/01/09 05:06:48;;;;;;;90.67;37.50;;;0.20;99.90;;;;;;4365771;32;20192;-74
2021/01/09 05:09:16;;;;;;;91.03;39.00;;;0.20;99.90;;;;;;4365707;32;20145;-74
2021/01/09 05:11:45;;;;;;;96.90;38.70;;;0.30;99.90;;;;;;4365709;32;20165;-74
2021/01/09 05:14:12;;;;;;;96.33;38.87;;;0.30;99.90;;;;;;4365716;32;20166;-74
2021/01/09 05:16:39;;;;;;;89.83;38.17;;;0.30;99.90;;;;;;4365660;32;20160;-74
2021/01/09 05:19:07;;;;;;;90.10;39.07;;;0.30;99.90;;;;;;4365611;32;20159;-75
2021/01/09 05:21:36;;;;;;;94.10;38.03;;;0.20;99.90;;;;;;4365580;32;20141;-74
2021/01/09 05:24:04;;;;;;;85.57;37.93;;;0.10;99.90;;;;;;4365573;32;20245;-74
2021/01/09 05:26:31;;;;;;;94.43;38.80;;;0.20;99.90;;;;;;4365347;32;20147;-73
2021/01/09 05:29:03;;;;;;;88.33;38.37;;;0.10;99.90;;;;;;4364918;32;20179;-75
2021/01/09 05:31:31;;;;;;;93.63;38.47;;;0.20;99.90;;;;;;4365317;32;20202;-73
2021/01/09 05:33:58;;;;;;;89.13;38.10;;;0.20;99.90;;;;;;4364611;32;20513;-72
2021/01/09 05:36:26;;;;;;;88.43;38.27;;;0.20;99.90;;;;;;4365423;32;20159;-74
2021/01/09 05:38:52;;;;;;;91.43;37.93;;;0.10;99.90;;;;;;4366115;32;20187;-74
2021/01/09 05:41:21;;;;;;;92.27;38.60;;;0.20;99.90;;;;;;4365385;32;20242;-74
2021/01/09 05:44:05;;;;;;;98.07;38.53;;;0.20;99.90;;;;;;4352038;33;20237;-73
2021/01/09 05:46:41;;;;;;;89.60;36.90;;;0.20;99.90;;;;;;4365300;32;20158;-74
2021/01/09 05:49:09;;;;;;;90.37;37.60;;;0.20;99.90;;;;;;4366969;32;20179;-74
2021/01/09 05:51:38;;;;;;;97.47;39.47;;;0.20;99.90;;;;;;4366540;32;20197;-74
2021/01/09 05:54:07;;;;;;;94.70;38.23;;;0.20;99.90;;;;;;4364885;32;20482;-74
2021/01/09 05:56:39;;;;;;;90.50;38.13;;;0.20;99.90;;;;;;4364947;32;20443;-73
2021/01/09 05:59:05;;;;;;;93.23;38.50;;;0.20;99.90;;;;;;4365682;32;20182;-72
2021/01/09 06:01:34;;;;;;;90.93;38.20;;;0.20;99.90;;;;;;4364411;32;20238;-72
2021/01/09 06:04:06;;;;;;;96.73;38.30;;;0.20;99.90;;;;;;4365708;32;20173;-73
2021/01/09 06:06:42;;;;;;;93.40;38.90;;;0.20;99.90;;;;;;4365755;32;20384;-75
2021/01/09 06:09:10;;;;;;;92.23;38.20;;;0.20;99.90;;;;;;4365770;32;20197;-72
2021/01/09 06:11:42;;;;;;;98.63;39.70;;;0.20;99.90;;;;;;4366381;32;20144;-72
2021/01/09 06:14:14;;;;;;;91.10;39.33;;;0.20;99.90;;;;;;4364835;32;20187;-72
2021/01/09 06:16:42;;;;;;;94.17;37.87;;;0.20;99.90;;;;;;4378310;32;20481;-71
2021/01/09 06:19:10;;;;;;;91.67;38.50;;;0.30;99.90;;;;;;4379942;32;20132;-70
2021/01/09 06:21:37;;;;;;;87.47;36.73;;;0.30;99.90;;;;;;4379642;32;20207;-73
2021/01/09 06:24:05;;;;;;;90.03;38.47;;;0.20;99.90;;;;;;4380616;32;20448;-73
2021/01/09 06:26:32;;;;;;;93.47;38.63;;;0.30;99.90;;;;;;4379625;32;20136;-74
2021/01/09 06:29:04;;;;;;;89.20;38.57;;;0.40;99.90;;;;;;4379774;32;20176;-74
2021/01/09 06:31:31;;;;;;;90.67;37.67;;;0.40;99.90;;;;;;4379540;32;20146;-75
2021/01/09 06:34:01;;;;;;;93.30;38.47;;;0.40;99.90;;;;;;4380634;32;20144;-73
2021/01/09 06:36:28;;;;;;;91.83;38.17;;;0.40;99.90;;;;;;4379451;32;20222;-73
2021/01/09 06:38:57;;;;;;;94.87;39.00;;;0.40;99.90;;;;;;4379383;32;20159;-74
2021/01/09 06:41:25;;;;;;;103.13;40.30;;;0.30;99.90;;;;;;4379319;32;20455;-73
2021/01/09 06:43:54;;;;;;;93.37;39.23;;;0.40;99.90;;;;;;4379015;32;20141;-73
2021/01/09 06:46:33;;;;;;;100.73;38.37;;;0.40;99.90;;;;;;4379298;32;20446;-73
2021/01/09 06:49:00;;;;;;;101.23;40.40;;;0.40;99.90;;;;;;4379179;32;20162;-72
2021/01/09 06:51:40;;;;;;;107.20;40.27;;;0.40;99.90;;;;;;4378849;32;20535;-73
2021/01/09 06:54:15;;;;;;;101.93;40.20;;;0.30;99.90;;;;;;4378947;32;20152;-73
2021/01/09 06:57:02;;;;;;;106.67;41.63;;;0.30;99.90;;;;;;4377725;32;20155;-76
2021/01/09 06:59:44;;;;;;;108.57;40.33;;;0.30;99.90;;;;;;4347332;32;20263;-74
2021/01/09 07:02:25;;;;;;;113.10;41.77;;;0.30;99.90;;;;;;4361268;32;20183;-74
2021/01/09 07:05:02;;;;;;;106.37;41.13;;;0.30;99.90;;;;;;4369302;32;20170;-74
2021/01/09 07:07:37;;;;;;;105.63;41.43;;;0.40;99.90;;;;;;4369074;32;20368;-73
2021/01/09 07:10:12;;;;;;;101.53;40.93;;;0.40;99.90;;;;;;4370325;32;20142;-75
2021/01/09 07:12:45;;;;;;;105.27;40.77;;;0.30;99.90;;;;;;4370235;32;20422;-75
2021/01/09 07:15:13;;;;;;;106.33;41.80;;;0.40;99.90;;;;;;4371052;32;20158;-75
2021/01/09 07:17:44;;;;;;;108.57;40.53;;;0.40;99.90;;;;;;4370291;32;20167;-76
2021/01/09 07:20:13;;;;;;;115.63;41.83;;;0.40;99.90;;;;;;4359051;32;20163;-74
2021/01/09 07:22:41;;;;;;;113.23;42.30;;;0.40;99.90;;;;;;4363991;32;20144;-74
2021/01/09 07:25:10;;;;;;;114.57;42.47;;;0.40;99.90;;;;;;4364227;32;20172;-74
2021/01/09 07:27:44;;;;;;;102.00;40.70;;;0.40;99.90;;;;;;4363931;33;20377;-73
2021/01/09 07:30:16;;;;;;;109.53;41.07;;;0.40;99.90;;;;;;4364375;33;20136;-73
2021/01/09 07:32:46;;;;;;;106.47;42.10;;;0.50;99.90;;;;;;4365577;33;20190;-74
2021/01/09 07:35:37;;;;;;;104.77;42.93;;;0.40;99.90;;;;;;4369099;32;20475;-73
2021/01/09 07:38:06;;;;;;;107.90;42.03;;;0.40;99.90;;;;;;4366136;32;20153;-74
2021/01/09 07:40:33;;;;;;;110.97;41.30;;;0.30;99.90;;;;;;4363875;33;20183;-73
2021/01/09 07:43:01;;;;;;;110.37;41.93;;;0.30;99.90;;;;;;4363883;33;20128;-74
2021/01/09 07:45:32;;;;;;;114.73;42.23;;;0.30;99.90;;;;;;4364792;33;20176;-74
2021/01/09 07:48:00;;;;;;;110.90;42.17;;;0.40;99.90;;;;;;4365365;33;20146;-74
2021/01/09 07:50:42;;;;;;;111.87;42.30;;;0.30;99.90;;;;;;4363683;33;20460;-73
2021/01/09 07:53:11;;;;;;;110.40;41.83;;;0.30;99.90;;;;;;4364027;33;20198;-73
2021/01/09 07:55:46;;;;;;;108.97;40.53;;;0.40;99.90;;;;;;4363744;32;20168;-74
2021/01/09 07:58:13;;;;;;;109.40;42.00;;;0.40;99.90;;;;;;4368731;32;20151;-74
2021/01/09 08:00:44;;;;;;;112.13;42.30;;;0.40;99.90;;;;;;4368575;32;20391;-73
2021/01/09 08:03:13;;;;;;;108.13;41.00;;;0.30;99.90;;;;;;4370506;32;20169;-75
2021/01/09 08:05:39;;;;;;;113.10;42.00;;;0.30;99.90;;;;;;4366309;32;20170;-73
2021/01/09 08:08:06;;;;;;;100.67;38.50;;;0.30;99.90;;;;;;4369159;32;20141;-73
2021/01/09 08:10:34;;;;;;;110.97;39.90;;;0.40;99.90;;;;;;4376349;32;20214;-74
2021/01/09 08:13:05;;;;;;;108.83;41.23;;;0.50;99.90;;;;;;4381654;32;20155;-75
2021/01/09 08:15:34;;;;;;;106.23;40.20;;;0.60;99.90;;;;;;4383194;32;20139;-75
2021/01/09 08:18:03;;;;;;;105.03;40.30;;;0.60;99.90;;;;;;4381395;32;20147;-74
2021/01/09 08:20:30;;;;;;;108.20;40.33;;;0.50;99.90;;;;;;4382761;32;20212;-75
2021/01/09 08:22:59;;;;;;;104.50;38.93;;;0.30;99.90;;;;;;4381270;32;20151;-74
2021/01/09 08:25:28;;;;;;;113.80;40.47;;;0.30;99.90;;;;;;4367116;32;20167;-75
2021/01/09 08:28:03;;;;;;;109.53;39.83;;;0.40;99.90;;;;;;4381072;32;20161;-75
2021/01/09 08:30:34;;;;;;;112.13;39.73;;;0.50;99.90;;;;;;4379933;32;20238;-75
2021/01/09 08:33:02;;;;;;;105.07;40.50;;;0.50;99.90;;;;;;4366229;32;20137;-74
2021/01/09 08:35:29;;;;;;;104.00;39.60;;;0.50;99.90;;;;;;4365893;32;20258;-76
2021/01/09 08:37:56;;;;;;;105.07;38.70;;;0.40;99.90;;;;;;4364704;32;20465;-74
2021/01/09 08:40:24;;;;;;;101.97;40.40;;;0.50;99.90;;;;;;4349893;32;20397;-77
2021/01/09 08:42:53;;;;;;;108.40;39.77;;;0.50;99.90;;;;;;4366486;32;20176;-76
2021/01/09 08:45:35;;;;;;;109.33;39.60;;;0.50;99.90;;;;;;4372745;32;20224;-77
2021/01/09 08:48:03;;;;;;;106.70;38.37;;;0.50;99.90;;;;;;4371912;32;20171;-76
2021/01/09 08:50:34;;;;;;;109.03;40.17;;;0.50;99.90;;;;;;4365930;32;20473;-76
2021/01/09 08:53:04;;;;;;;104.63;36.73;;;0.50;99.90;;;;;;4370770;32;20364;-74
2021/01/09 08:55:32;;;;;;;112.03;40.23;;;0.50;99.90;;;;;;4373471;32;20456;-73
2021/01/09 08:58:00;;;;;;;105.20;39.50;;;0.60;99.90;;;;;;4381354;32;20189;-73
2021/01/09 09:00:26;;;;;;;106.47;38.43;;;0.60;99.90;;;;;;4379391;32;21055;-73
2021/01/09 09:02:55;;;;;;;98.03;36.63;;;0.70;99.90;;;;;;4372108;32;20146;-73
2021/01/09 09:05:29;;;;;;;110.00;39.17;;;0.70;99.90;;;;;;4370210;32;20420;-74
2021/01/09 09:08:00;;;;;;;101.87;37.27;;;0.60;99.90;;;;;;4365684;32;20192;-73
2021/01/09 09:10:30;;;;;;;94.50;36.47;;;0.50;99.90;;;;;;4369533;32;20287;-73
2021/01/09 09:13:23;;;;;;;108.37;38.23;;;0.60;99.90;;;;;;4365595;32;20154;-73
2021/01/09 09:15:51;;;;;;;101.73;37.63;;;0.60;99.90;;;;;;4364085;32;20146;-73
2021/01/09 09:18:19;;;;;;;106.80;38.27;;;0.60;99.90;;;;;;4365368;32;20190;-74
2021/01/09 09:20:54;;;;;;;111.07;38.17;;;0.60;99.90;;;;;;4365023;32;20414;-73
2021/01/09 09:23:24;;;;;;;105.67;37.67;;;0.60;99.90;;;;;;4363881;32;20274;-75
2021/01/09 09:26:10;;;;;;;113.93;38.23;;;0.60;99.90;;;;;;4369412;32;20148;-73
2021/01/09 09:28:50;;;;;;;104.17;37.37;;;0.60;99.90;;;;;;4376072;32;20152;-74
2021/01/09 09:31:28;;;;;;;102.63;35.47;;;0.70;99.90;;;;;;4367088;32;20370;-74
2021/01/09 09:34:05;;;;;;;101.00;34.80;;;0.60;99.90;;;;;;4365453;32;20131;-73
2021/01/09 09:36:39;;;;;;;98.93;35.13;;;0.70;99.90;;;;;;4352881;32;20163;-75
2021/01/09 09:39:20;;;;;;;106.87;36.53;;;0.80;99.90;;;;;;4365341;32;20190;-75
2021/01/09 09:41:58;;;;;;;101.57;35.27;;;0.70;99.90;;;;;;4365792;32;20144;-75
2021/01/09 09:44:42;;;;;;;95.27;33.63;;;0.60;99.90;;;;;;4365329;32;20532;-74
2021/01/09 09:47:10;;;;;;;101.33;34.63;;;0.70;99.90;;;;;;4366634;32;20150;-74
2021/01/09 09:49:42;;;;;;;105.10;36.00;;;0.80;99.90;;;;;;4366893;32;20170;-73
2021/01/09 09:52:19;;;;;;;95.03;33.63;;;0.90;99.90;;;;;;4366299;32;20206;-72
2021/01/09 09:54:47;;;;;;;97.00;33.77;;;0.80;99.90;;;;;;4365505;32;20203;-74
2021/01/09 09:57:22;;;;;;;97.53;35.63;;;0.80;99.90;;;;;;4366619;32;20148;-74
2021/01/09 10:00:12;;;;;;;98.47;33.70;;;0.80;99.90;;;;;;4365087;32;20539;-75
2021/01/09 10:02:52;;;;;;;95.17;33.63;;;0.80;99.90;;;;;;4365386;32;20173;-75
2021/01/09 10:05:19;;;;;;;102.20;33.37;;;0.90;99.90;;;;;;4365041;32;20138;-74
2021/01/09 10:07:45;;;;;;;102.53;34.60;;;0.80;99.90;;;;;;4366202;32;20439;-74
2021/01/09 10:10:19;;;;;;;102.47;35.07;;;0.70;99.90;;;;;;4364922;32;20177;-74
2021/01/09 10:12:58;;;;;;;101.90;35.07;;;0.80;99.90;;;;;;4364456;32;20172;-75
2021/01/09 10:15:26;;;;;;;106.23;36.07;;;0.90;99.90;;;;;;4364579;32;20145;-75
2021/01/09 10:17:55;;;;;;;108.53;37.17;;;0.90;99.90;;;;;;4364563;32;20187;-75
2021/01/09 10:20:22;;;;;;;113.27;37.57;;;0.90;99.90;;;;;;4364345;32;20138;-75
2021/01/09 10:22:48;;;;;;;108.23;35.03;;;0.90;99.90;;;;;;4375140;32;20179;-76
2021/01/09 10:25:15;;;;;;;109.53;36.57;;;0.80;99.90;;;;;;4364102;32;20408;-76
2021/01/09 10:27:42;;;;;;;106.20;36.33;;;0.80;99.90;;;;;;4379304;32;20388;-74
2021/01/09 10:30:09;;;;;;;116.10;36.80;;;0.90;99.90;;;;;;4365159;32;20187;-71
2021/01/09 10:32:36;;;;;;;114.13;37.30;;;0.90;99.90;;;;;;4365936;32;20149;-71
2021/01/09 10:35:03;;;;;;;114.43;38.40;;;0.90;99.90;;;;;;4367771;32;20475;-70
2021/01/09 10:37:30;;;;;;;112.03;35.83;;;1.00;99.90;;;;;;4366285;32;20513;-72
2021/01/09 10:39:56;;;;;;;109.20;37.23;;;0.90;99.90;;;;;;4364090;32;20159;-72
2021/01/09 10:42:28;;;;;;;108.10;36.43;;;0.90;99.90;;;;;;4365223;32;20211;-72
2021/01/09 10:44:55;;;;;;;111.37;36.40;;;0.80;99.90;;;;;;4372516;32;20159;-72
2021/01/09 10:47:22;;;;;;;102.43;35.03;;;0.80;99.90;;;;;;4371867;32;20483;-73
2021/01/09 10:49:48;;;;;;;99.43;34.43;;;0.90;99.90;;;;;;4365606;32;20201;-72
2021/01/09 10:52:15;;;;;;;103.70;34.93;;;0.90;99.90;;;;;;4365050;32;20169;-72
2021/01/09 10:54:41;;;;;;;106.30;35.03;;;0.90;99.90;;;;;;4367948;32;20179;-72
2021/01/09 10:57:07;;;;;;;105.10;32.97;;;1.00;99.90;;;;;;4370499;32;20283;-69
2021/01/09 10:59:34;;;;;;;92.17;30.73;;;1.00;99.90;;;;;;4371275;32;20140;-70
2021/01/09 11:02:04;;;;;;;95.10;32.43;;;1.10;99.90;;;;;;4370541;32;20166;-70
2021/01/09 11:04:31;;;;;;;85.83;31.73;;;1.00;99.90;;;;;;4371666;32;20140;-69
2021/01/09 11:06:58;;;;;;;87.20;31.17;;;1.00;99.90;;;;;;4372300;32;20148;-69
2021/01/09 11:09:26;;;;;;;94.03;31.97;;;1.00;99.90;;;;;;4373612;32;20132;-71
2021/01/09 11:11:54;;;;;;;84.80;30.63;;;1.10;99.90;;;;;;4369558;32;20408;-70
2021/01/09 11:14:21;;;;;;;89.37;31.60;;;1.10;99.90;;;;;;4366325;32;20164;-74
2021/01/09 11:16:54;;;;;;;86.90;30.90;;;1.20;99.90;;;;;;4373595;32;20233;-73
2021/01/09 11:19:21;;;;;;;89.20;31.20;;;1.10;99.90;;;;;;4379099;32;20136;-73
2021/01/09 11:21:47;;;;;;;91.13;31.17;;;1.10;99.90;;;;;;4374519;32;20140;-72
2021/01/09 11:24:14;;;;;;;86.23;31.33;;;1.10;99.90;;;;;;4366792;32;20186;-73
2021/01/09 11:26:40;;;;;;;94.17;31.50;;;1.10;99.90;;;;;;4368810;32;20395;-73
2021/01/09 11:29:07;;;;;;;95.20;32.97;;;1.10;99.90;;;;;;4368360;32;20239;-74
2021/01/09 11:31:33;;;;;;;95.90;32.40;;;1.00;99.90;;;;;;4371072;32;20163;-74
2021/01/09 11:34:01;;;;;;;98.47;31.93;;;1.00;99.90;;;;;;4364777;32;20160;-73
2021/01/09 11:36:27;;;;;;;99.63;31.27;;;1.00;99.90;;;;;;4366267;32;20144;-74
2021/01/09 11:38:54;;;;;;;88.53;30.47;;;1.00;99.90;;;;;;4366048;32;20533;-72
2021/01/09 11:41:21;;;;;;;89.07;30.50;;;1.00;99.90;;;;;;4364191;32;20152;-75
2021/01/09 11:43:47;;;;;;;91.73;30.80;;;1.00;99.90;;;;;;4365135;32;20203;-76
2021/01/09 11:46:14;;;;;;;93.20;31.27;;;1.00;99.90;;;;;;4367292;32;20144;-73
2021/01/09 11:48:42;;;;;;;102.20;31.27;;;1.10;99.90;;;;;;4366655;32;20140;-74
2021/01/09 11:51:09;;;;;;;89.00;30.63;;;1.00;99.90;;;;;;4372060;32;20156;-73
2021/01/09 11:53:36;;;;;;;90.20;29.37;;;1.00;99.90;;;;;;4366870;32;20179;-74
2021/01/09 11:56:03;;;;;;;94.27;31.00;;;1.00;99.90;;;;;;4366728;32;20136;-71
2021/01/09 11:58:30;;;;;;;98.27;31.00;;;1.00;99.90;;;;;;4368340;32;20203;-75
2021/01/09 12:00:57;;;;;;;90.53;30.33;;;1.00;99.90;;;;;;4366643;32;20501;-72
2021/01/09 12:03:24;;;;;;;90.30;31.70;;;1.10;99.90;;;;;;4366853;32;20148;-72
2021/01/09 12:05:50;;;;;;;98.40;30.20;;;1.10;99.90;;;;;;4366540;32;20140;-77
2021/01/09 12:08:17;;;;;;;86.47;29.67;;;1.10;99.90;;;;;;4365971;32;20423;-74
2021/01/09 12:10:43;;;;;;;94.67;30.87;;;1.10;99.90;;;;;;4365496;32;20144;-74
2021/01/09 12:13:10;;;;;;;95.90;31.80;;;1.20;99.90;;;;;;4366725;32;20199;-74
2021/01/09 12:15:37;;;;;;;99.70;31.80;;;1.10;99.90;;;;;;4366234;32;20148;-73
2021/01/09 12:18:04;;;;;;;90.70;29.43;;;1.10;99.90;;;;;;4366578;32;20162;-72
2021/01/09 12:20:30;;;;;;;91.07;30.20;;;1.10;99.90;;;;;;4370539;32;20144;-74
2021/01/09 12:22:57;;;;;;;93.77;31.00;;;1.10;99.90;;;;;;4368566;32;20174;-73
2021/01/09 12:25:24;;;;;;;94.20;31.20;;;1.20;99.90;;;;;;4366063;32;20139;-72
2021/01/09 12:27:50;;;;;;;93.80;31.20;;;1.20;99.90;;;;;;4371367;32;20148;-73
2021/01/09 12:30:18;;;;;;;91.60;30.13;;;1.20;99.90;;;;;;4366115;32;20386;-73
2021/01/09 12:32:44;;;;;;;93.80;30.97;;;1.30;99.90;;;;;;4371976;32;20166;-73
2021/01/09 12:35:11;;;;;;;93.10;31.37;;;1.10;99.90;;;;;;4366185;32;20145;-73
2021/01/09 12:37:38;;;;;;;86.50;29.20;;;1.10;99.90;;;;;;4366083;32;20210;-73
2021/01/09 12:40:06;;;;;;;92.37;29.97;;;1.20;99.90;;;;;;4366607;32;20438;-72